createdAt,value
2023-03-02T00:01:50.762Z,59.90
2023-03-02T00:04:24.398Z,59.80
2023-03-02T00:06:54.240Z,59.80
2023-03-02T00:09:22.838Z,59.80
2023-03-02T00:11:52.271Z,59.80
2023-03-02T00:14:20.851Z,59.90
2023-03-02T00:16:50.418Z,59.90
2023-03-02T00:19:19.096Z,59.90
2023-03-02T00:21:47.196Z,60.00
2023-03-02T00:24:16.209Z,60.10
2023-03-02T00:26:44.496Z,60.00
2023-03-02T00:29:13.077Z,60.20
2023-03-02T00:31:41.690Z,60.20
2023-03-02T00:34:11.633Z,60.20
2023-03-02T00:36:40.594Z,60.10
2023-03-02T00:39:08.851Z,60.30
2023-03-02T00:41:37.408Z,60.30
2023-03-02T00:44:06.197Z,60.40
2023-03-02T00:46:35.057Z,60.40
2023-03-02T00:49:03.905Z,60.50
2023-03-02T00:51:34.168Z,60.60
2023-03-02T00:54:03.230Z,60.80
2023-03-02T00:56:32.830Z,60.80
2023-03-02T00:59:06.052Z,60.90
2023-03-02T01:01:34.629Z,61.30
2023-03-02T01:04:02.728Z,61.10
2023-03-02T01:06:31.665Z,61.20
2023-03-02T01:09:01.889Z,61.30
2023-03-02T01:11:30.469Z,61.40
2023-03-02T01:13:59.039Z,61.40
2023-03-02T01:16:27.264Z,61.50
2023-03-02T01:18:55.838Z,61.60
2023-03-02T01:21:23.973Z,61.70
2023-03-02T01:23:53.111Z,61.70
2023-03-02T01:26:23.041Z,61.70
2023-03-02T01:28:55.801Z,61.70
2023-03-02T01:31:24.659Z,61.80
2023-03-02T01:33:52.855Z,61.90
2023-03-02T01:36:21.683Z,61.90
2023-03-02T01:38:49.922Z,62.00
2023-03-02T01:41:19.048Z,62.10
2023-03-02T01:43:48.582Z,62.30
2023-03-02T01:46:19.340Z,62.50
2023-03-02T01:48:50.392Z,62.60
2023-03-02T01:51:21.731Z,62.80
2023-03-02T01:53:55.382Z,62.80
2023-03-02T01:56:27.238Z,62.90
2023-03-02T01:59:02.891Z,62.80
2023-03-02T02:01:33.311Z,63.00
2023-03-02T02:04:02.260Z,62.80
2023-03-02T02:06:35.964Z,62.90
2023-03-02T02:09:06.782Z,63.00
2023-03-02T02:11:35.410Z,63.00
2023-03-02T02:14:05.394Z,63.00
2023-03-02T02:16:35.805Z,63.00
2023-03-02T02:19:05.315Z,63.10
2023-03-02T02:21:33.986Z,63.20
2023-03-02T02:24:10.500Z,63.20
2023-03-02T02:26:44.956Z,63.50
2023-03-02T02:29:19.496Z,63.40
2023-03-02T02:31:51.442Z,63.40
2023-03-02T02:34:23.679Z,63.40
2023-03-02T02:36:55.686Z,63.40
2023-03-02T02:39:28.978Z,63.50
2023-03-02T02:42:02.215Z,63.60
2023-03-02T02:44:30.977Z,63.60
2023-03-02T02:46:59.595Z,63.50
2023-03-02T02:49:32.528Z,63.50
2023-03-02T02:52:01.226Z,63.90
2023-03-02T02:54:30.703Z,63.80
2023-03-02T02:57:02.554Z,63.80
2023-03-02T02:59:34.937Z,64.00
2023-03-02T03:02:03.532Z,64.00
2023-03-02T03:04:33.798Z,63.90
2023-03-02T03:07:04.372Z,64.00
2023-03-02T03:09:33.409Z,64.00
2023-03-02T03:12:08.254Z,64.10
2023-03-02T03:15:13.219Z,64.20
2023-03-02T03:17:41.948Z,64.40
2023-03-02T03:20:11.327Z,63.80
2023-03-02T03:22:40.587Z,64.00
2023-03-02T03:25:09.337Z,64.10
2023-03-02T03:27:38.792Z,64.10
2023-03-02T03:30:08.438Z,64.20
2023-03-02T03:32:36.856Z,64.40
2023-03-02T03:35:09.075Z,64.40
2023-03-02T03:37:38.294Z,64.40
2023-03-02T03:40:09.356Z,64.60
2023-03-02T03:42:40.227Z,64.70
2023-03-02T03:45:09.630Z,64.90
2023-03-02T03:47:38.844Z,64.90
2023-03-02T03:50:07.409Z,64.80
2023-03-02T03:52:35.545Z,64.80
2023-03-02T03:55:04.329Z,64.90
2023-03-02T03:57:32.454Z,65.00
2023-03-02T04:00:02.368Z,65.10
2023-03-02T04:02:30.941Z,65.10
2023-03-02T04:05:06.325Z,64.90
2023-03-02T04:07:35.167Z,65.10
2023-03-02T04:10:04.922Z,65.10
2023-03-02T04:12:33.609Z,65.20
2023-03-02T04:15:04.020Z,65.10
2023-03-02T04:17:32.125Z,65.20
2023-03-02T04:20:00.795Z,65.10
2023-03-02T04:22:29.160Z,65.20
2023-03-02T04:24:57.740Z,65.30
2023-03-02T04:27:25.973Z,65.30
2023-03-02T04:29:54.104Z,65.40
2023-03-02T04:32:24.106Z,65.50
2023-03-02T04:34:52.680Z,65.90
2023-03-02T04:37:21.245Z,65.50
2023-03-02T04:39:51.603Z,65.40
2023-03-02T04:42:20.317Z,65.50
2023-03-02T04:44:48.956Z,65.50
2023-03-02T04:47:17.172Z,65.50
2023-03-02T04:49:47.112Z,65.50
2023-03-02T04:52:15.151Z,65.50
2023-03-02T04:54:43.309Z,65.60
2023-03-02T04:57:11.880Z,65.50
2023-03-02T04:59:40.127Z,65.70
2023-03-02T05:02:08.699Z,65.70
2023-03-02T05:04:37.347Z,65.60
2023-03-02T05:07:07.384Z,65.80
2023-03-02T05:09:35.537Z,65.80
2023-03-02T05:12:04.243Z,65.90
2023-03-02T05:14:32.880Z,65.90
2023-03-02T05:17:00.956Z,65.90
2023-03-02T05:19:29.690Z,65.90
2023-03-02T05:21:57.773Z,65.80
2023-03-02T05:24:28.250Z,65.80
2023-03-02T05:26:56.816Z,65.90
2023-03-02T05:29:25.352Z,65.90
2023-03-02T05:31:53.596Z,65.90
2023-03-02T05:34:22.672Z,65.80
2023-03-02T05:36:50.892Z,66.00
2023-03-02T05:39:19.434Z,66.10
2023-03-02T05:41:49.374Z,66.10
2023-03-02T05:44:17.437Z,66.10
2023-03-02T05:46:45.601Z,66.10
2023-03-02T05:49:14.241Z,66.20
2023-03-02T05:51:42.763Z,66.20
2023-03-02T05:54:10.819Z,66.40
2023-03-02T05:56:39.447Z,66.40
2023-03-02T05:59:09.982Z,66.40
2023-03-02T06:01:38.824Z,66.60
2023-03-02T06:04:07.483Z,66.50
2023-03-02T06:06:35.927Z,66.60
2023-03-02T06:09:04.712Z,66.60
2023-03-02T06:11:32.936Z,66.70
2023-03-02T06:14:01.647Z,66.80
2023-03-02T06:16:31.829Z,66.80
2023-03-02T06:19:00.659Z,66.80
2023-03-02T06:21:28.811Z,66.80
2023-03-02T06:23:57.383Z,67.00
2023-03-02T06:26:25.504Z,67.10
2023-03-02T06:28:54.095Z,67.20
2023-03-02T06:31:22.647Z,67.10
2023-03-02T06:33:52.225Z,67.20
2023-03-02T06:36:20.876Z,67.30
2023-03-02T06:38:49.511Z,67.30
2023-03-02T06:41:17.931Z,67.40
2023-03-02T06:43:46.564Z,67.50
2023-03-02T06:46:15.011Z,67.30
2023-03-02T06:48:43.664Z,67.50
2023-03-02T06:51:13.717Z,67.50
2023-03-02T06:53:42.254Z,67.70
2023-03-02T06:56:10.946Z,67.60
2023-03-02T06:58:39.026Z,67.80
2023-03-02T07:01:08.891Z,67.80
2023-03-02T07:03:37.502Z,67.80
2023-03-02T07:06:06.279Z,67.90
2023-03-02T07:08:36.489Z,68.10
2023-03-02T07:11:06.913Z,68.20
2023-03-02T07:13:35.031Z,68.30
2023-03-02T07:16:07.823Z,68.20
2023-03-02T07:18:35.948Z,68.50
2023-03-02T07:21:04.338Z,68.40
2023-03-02T07:23:32.900Z,68.50
2023-03-02T07:26:02.429Z,68.50
2023-03-02T07:28:30.541Z,68.70
2023-03-02T07:30:58.661Z,68.50
2023-03-02T07:33:27.295Z,68.50
2023-03-02T07:35:55.525Z,68.60
2023-03-02T07:38:24.098Z,68.50
2023-03-02T07:40:53.262Z,68.80
2023-03-02T07:43:24.111Z,68.80
2023-03-02T07:45:52.951Z,68.70
2023-03-02T07:48:23.240Z,69.00
2023-03-02T07:50:51.792Z,69.10
2023-03-02T07:53:19.860Z,69.00
2023-03-02T07:55:48.382Z,69.20
2023-03-02T07:58:16.970Z,69.20
2023-03-02T08:00:46.439Z,69.30
2023-03-02T08:03:15.073Z,69.40
2023-03-02T08:05:43.721Z,69.20
2023-03-02T08:08:12.294Z,69.20
2023-03-02T08:10:40.375Z,69.20
2023-03-02T08:13:09.006Z,69.20
2023-03-02T08:15:37.066Z,69.30
2023-03-02T08:18:07.048Z,69.30
2023-03-02T08:20:35.602Z,69.30
2023-03-02T08:23:04.223Z,69.20
2023-03-02T08:25:32.796Z,69.30
2023-03-02T08:28:00.873Z,69.60
2023-03-02T08:30:29.511Z,69.50
2023-03-02T08:32:57.570Z,69.40
2023-03-02T08:35:27.568Z,69.60
2023-03-02T08:37:55.653Z,69.50
2023-03-02T08:40:23.874Z,69.50
2023-03-02T08:42:57.481Z,69.50
2023-03-02T08:45:26.421Z,69.40
2023-03-02T08:47:54.787Z,69.20
2023-03-02T08:50:23.417Z,69.30
2023-03-02T08:52:52.893Z,69.10
2023-03-02T08:55:21.513Z,68.90
2023-03-02T08:57:50.050Z,68.80
2023-03-02T09:00:19.030Z,68.80
2023-03-02T09:02:47.581Z,68.60
2023-03-02T09:05:15.821Z,68.40
2023-03-02T09:07:44.407Z,68.50
2023-03-02T09:10:14.062Z,68.40
2023-03-02T09:12:42.613Z,68.40
2023-03-02T09:15:11.343Z,68.20
2023-03-02T09:17:39.907Z,68.00
2023-03-02T09:20:10.351Z,67.70
2023-03-02T09:22:38.505Z,67.60
2023-03-02T09:25:08.648Z,67.70
2023-03-02T09:27:38.092Z,67.70
2023-03-02T09:30:07.251Z,67.50
2023-03-02T09:32:35.430Z,67.60
2023-03-02T09:35:04.611Z,67.50
2023-03-02T09:37:32.741Z,67.50
2023-03-02T09:40:00.977Z,67.40
2023-03-02T09:42:48.798Z,67.20
2023-03-02T09:45:36.597Z,67.30
2023-03-02T09:48:18.320Z,67.20
2023-03-02T09:50:56.678Z,67.20
2023-03-02T09:53:37.014Z,66.90
2023-03-02T09:56:10.703Z,67.00
2023-03-02T09:58:42.618Z,66.70
2023-03-02T10:01:16.940Z,66.60
2023-03-02T10:03:51.589Z,66.60
2023-03-02T10:06:19.672Z,66.60
2023-03-02T10:08:50.982Z,66.50
2023-03-02T10:11:30.567Z,66.30
2023-03-02T10:14:04.338Z,66.10
2023-03-02T10:16:37.316Z,66.10
2023-03-02T10:19:14.150Z,66.10
2023-03-02T10:21:45.373Z,66.10
2023-03-02T10:24:23.537Z,66.10
2023-03-02T10:26:55.774Z,66.10
2023-03-02T10:29:44.643Z,65.90
2023-03-02T10:32:20.074Z,65.90
2023-03-02T10:34:50.514Z,65.90
2023-03-02T10:37:22.114Z,65.80
2023-03-02T10:39:50.833Z,65.70
2023-03-02T10:42:23.256Z,65.60
2023-03-02T10:44:58.242Z,65.50
2023-03-02T10:47:28.653Z,65.40
2023-03-02T10:49:59.011Z,66.30
2023-03-02T10:52:29.633Z,65.20
2023-03-02T10:55:05.298Z,65.10
2023-03-02T10:57:38.817Z,65.00
2023-03-02T11:00:18.005Z,64.90
2023-03-02T11:02:54.554Z,64.70
2023-03-02T11:05:28.619Z,64.50
2023-03-02T11:07:59.133Z,64.50
2023-03-02T11:10:31.388Z,64.40
2023-03-02T11:13:00.947Z,64.30
2023-03-02T11:15:38.326Z,64.20
2023-03-02T11:18:23.606Z,63.90
2023-03-02T11:20:55.874Z,63.90
2023-03-02T11:23:31.500Z,63.90
2023-03-02T11:26:04.098Z,63.60
2023-03-02T11:28:39.206Z,63.60
2023-03-02T11:31:17.209Z,63.30
2023-03-02T11:33:57.917Z,63.10
2023-03-02T11:36:38.825Z,62.80
2023-03-02T11:39:13.205Z,62.60
2023-03-02T11:41:42.754Z,62.40
2023-03-02T11:44:17.191Z,62.30
2023-03-02T11:46:50.266Z,62.00
2023-03-02T11:49:23.073Z,61.70
2023-03-02T11:51:58.474Z,61.60
2023-03-02T11:54:36.786Z,61.30
2023-03-02T11:57:06.159Z,61.20
2023-03-02T11:59:36.060Z,61.20
2023-03-02T12:02:06.486Z,61.10
2023-03-02T12:04:36.778Z,60.70
2023-03-02T12:07:18.964Z,60.50
2023-03-02T12:09:59.189Z,60.30
2023-03-02T12:12:41.377Z,59.80
2023-03-02T12:15:35.896Z,59.60
2023-03-02T12:18:29.168Z,59.10
2023-03-02T12:21:02.742Z,59.70
2023-03-02T12:23:32.405Z,59.10
2023-03-02T12:26:08.066Z,59.00
2023-03-02T12:28:39.382Z,58.60
2023-03-02T12:31:11.169Z,58.60
2023-03-02T12:33:49.446Z,58.50
2023-03-02T12:36:23.435Z,57.90
2023-03-02T12:39:06.567Z,58.50
2023-03-02T12:42:06.288Z,57.80
2023-03-02T12:44:49.645Z,57.60
2023-03-02T12:47:26.136Z,57.10
2023-03-02T12:49:59.122Z,57.40
2023-03-02T12:52:32.289Z,57.70
2023-03-02T12:55:02.505Z,56.80
2023-03-02T12:57:31.422Z,56.80
2023-03-02T13:00:01.489Z,56.80
2023-03-02T13:02:32.059Z,56.60
2023-03-02T13:05:03.841Z,56.10
2023-03-02T13:07:38.133Z,56.00
2023-03-02T13:10:17.974Z,55.70
2023-03-02T13:12:47.301Z,55.70
2023-03-02T13:15:18.468Z,55.80
2023-03-02T13:17:54.688Z,55.50
2023-03-02T13:20:27.331Z,55.40
2023-03-02T13:22:56.604Z,55.20
2023-03-02T13:25:28.397Z,55.10
2023-03-02T13:27:58.298Z,54.80
2023-03-02T13:30:29.770Z,54.70
2023-03-02T13:33:03.735Z,54.40
2023-03-02T13:35:35.693Z,54.20
2023-03-02T13:38:06.854Z,54.00
2023-03-02T13:40:40.764Z,53.60
2023-03-02T13:43:38.996Z,53.50
2023-03-02T13:46:25.577Z,52.70
2023-03-02T13:49:13.701Z,53.30
2023-03-02T13:51:46.379Z,52.70
2023-03-02T13:54:22.132Z,52.70
2023-03-02T13:56:52.590Z,52.30
2023-03-02T13:59:22.376Z,52.30
2023-03-02T14:01:50.594Z,52.00
2023-03-02T14:04:21.666Z,51.90
2023-03-02T14:06:52.262Z,51.60
2023-03-02T14:09:21.150Z,51.50
2023-03-02T14:11:52.398Z,51.60
2023-03-02T14:14:22.729Z,51.40
2023-03-02T14:16:51.998Z,51.30
2023-03-02T14:19:20.250Z,51.20
2023-03-02T14:21:50.912Z,51.10
2023-03-02T14:24:19.055Z,50.80
2023-03-02T14:26:49.841Z,50.90
2023-03-02T14:29:24.860Z,50.60
2023-03-02T14:31:55.691Z,49.80
2023-03-02T14:34:24.312Z,50.10
2023-03-02T14:36:55.397Z,50.40
2023-03-02T14:39:29.667Z,49.50
2023-03-02T14:41:58.717Z,49.60
2023-03-02T14:44:27.543Z,49.30
2023-03-02T14:46:57.190Z,49.30
2023-03-02T14:49:25.360Z,48.90
2023-03-02T14:52:02.673Z,48.90
2023-03-02T14:54:39.325Z,48.40
2023-03-02T14:57:15.841Z,48.40
2023-03-02T14:59:44.426Z,48.70
2023-03-02T15:02:24.723Z,48.70
2023-03-02T15:04:56.438Z,48.00
2023-03-02T15:07:27.576Z,48.10
2023-03-02T15:09:56.654Z,48.00
2023-03-02T15:12:25.016Z,47.60
2023-03-02T15:14:53.614Z,47.90
2023-03-02T15:17:22.264Z,47.80
2023-03-02T15:19:50.372Z,47.50
2023-03-02T15:22:18.936Z,46.90
2023-03-02T15:24:48.421Z,46.80
2023-03-02T15:27:16.591Z,47.00
2023-03-02T15:29:45.971Z,47.20
2023-03-02T15:32:14.835Z,47.00
2023-03-02T15:34:42.947Z,46.70
2023-03-02T15:37:12.195Z,46.30
2023-03-02T15:39:40.362Z,46.40
2023-03-02T15:42:10.791Z,46.50
2023-03-02T15:44:40.634Z,46.10
2023-03-02T15:47:08.782Z,46.20
2023-03-02T15:49:37.340Z,46.00
2023-03-02T15:52:06.311Z,45.90
2023-03-02T15:54:34.468Z,46.10
2023-03-02T15:57:03.323Z,46.30
2023-03-02T15:59:33.366Z,46.10
2023-03-02T16:02:02.412Z,46.10
2023-03-02T16:04:32.463Z,46.50
2023-03-02T16:07:01.290Z,46.80
2023-03-02T16:09:31.013Z,46.80
2023-03-02T16:11:59.393Z,47.20
2023-03-02T16:14:27.578Z,47.30
2023-03-02T16:16:57.148Z,47.70
2023-03-02T16:19:25.318Z,47.90
2023-03-02T16:21:53.910Z,48.30
2023-03-02T16:24:22.044Z,48.00
2023-03-02T16:26:50.976Z,48.00
2023-03-02T16:29:19.318Z,48.40
2023-03-02T16:31:48.692Z,48.80
2023-03-02T16:34:18.218Z,49.10
2023-03-02T16:36:47.065Z,49.00
2023-03-02T16:39:15.899Z,49.20
2023-03-02T16:41:46.245Z,49.50
2023-03-02T16:44:16.595Z,49.50
2023-03-02T16:46:44.897Z,49.50
2023-03-02T16:49:15.319Z,49.60
2023-03-02T16:51:45.433Z,49.40
2023-03-02T16:54:16.961Z,49.50
2023-03-02T16:56:47.744Z,49.60
2023-03-02T16:59:16.479Z,49.80
2023-03-02T17:01:44.910Z,49.80
2023-03-02T17:04:13.602Z,49.80
2023-03-02T17:06:59.860Z,49.90
2023-03-02T17:09:28.676Z,50.00
2023-03-02T17:11:56.811Z,50.00
2023-03-02T17:14:25.415Z,50.00
2023-03-02T17:16:53.518Z,50.90
2023-03-02T17:19:22.078Z,50.40
2023-03-02T17:21:51.517Z,50.40
2023-03-02T17:24:19.702Z,50.50
2023-03-02T17:26:47.868Z,50.60
2023-03-02T17:29:16.119Z,50.70
2023-03-02T17:31:44.881Z,50.80
2023-03-02T17:34:13.795Z,50.90
2023-03-02T17:36:42.394Z,50.90
2023-03-02T17:39:11.927Z,51.10
2023-03-02T17:41:40.971Z,51.30
2023-03-02T17:44:09.515Z,51.20
2023-03-02T17:46:37.633Z,51.30
2023-03-02T17:49:06.255Z,51.50
2023-03-02T17:51:34.339Z,51.70
2023-03-02T17:54:02.918Z,51.80
2023-03-02T17:56:35.648Z,51.90
2023-03-02T17:59:06.298Z,52.00
2023-03-02T18:01:35.140Z,52.00
2023-03-02T18:04:03.264Z,52.10
2023-03-02T18:06:31.448Z,52.00
2023-03-02T18:08:59.514Z,52.10
2023-03-02T18:11:28.099Z,52.20
2023-03-02T18:13:58.507Z,52.20
2023-03-02T18:16:29.316Z,52.30
2023-03-02T18:18:57.866Z,52.50
2023-03-02T18:21:26.039Z,52.50
2023-03-02T18:23:54.986Z,52.60
2023-03-02T18:26:23.640Z,52.60
2023-03-02T18:28:52.364Z,52.60
2023-03-02T18:31:23.406Z,52.70
2023-03-02T18:33:51.620Z,53.00
2023-03-02T18:36:19.747Z,53.00
2023-03-02T18:38:49.264Z,53.70
2023-03-02T18:41:17.827Z,53.00
2023-03-02T18:43:45.944Z,53.40
2023-03-02T18:46:25.199Z,53.30
2023-03-02T18:48:54.312Z,53.40
2023-03-02T18:51:25.541Z,53.30
2023-03-02T18:53:54.574Z,53.40
2023-03-02T18:56:23.979Z,53.40
2023-03-02T18:58:52.476Z,53.50
2023-03-02T19:01:22.711Z,53.60
2023-03-02T19:03:50.833Z,53.70
2023-03-02T19:06:21.001Z,53.80
2023-03-02T19:08:49.531Z,53.90
2023-03-02T19:11:18.128Z,53.90
2023-03-02T19:13:46.706Z,54.00
2023-03-02T19:16:17.270Z,54.20
2023-03-02T19:18:48.729Z,54.40
2023-03-02T19:21:17.517Z,54.60
2023-03-02T19:23:46.556Z,54.70
2023-03-02T19:26:15.276Z,54.70
2023-03-02T19:28:43.819Z,54.90
2023-03-02T19:31:12.010Z,55.00
2023-03-02T19:33:40.433Z,55.10
2023-03-02T19:36:11.402Z,55.20
2023-03-02T19:38:41.621Z,55.30
2023-03-02T19:41:12.226Z,55.30
2023-03-02T19:43:41.902Z,55.50
2023-03-02T19:46:12.213Z,55.50
2023-03-02T19:48:40.993Z,55.60
2023-03-02T19:51:12.529Z,55.70
2023-03-02T19:53:41.221Z,55.80
2023-03-02T19:56:12.837Z,55.90
2023-03-02T19:58:48.718Z,56.00
2023-03-02T20:01:21.603Z,56.00
2023-03-02T20:03:52.318Z,56.10
2023-03-02T20:06:23.040Z,56.10
2023-03-02T20:08:51.644Z,56.20
2023-03-02T20:11:20.213Z,56.30
2023-03-02T20:13:51.114Z,56.30
2023-03-02T20:16:23.277Z,56.30
2023-03-02T20:18:51.513Z,56.50
2023-03-02T20:21:21.768Z,56.50
2023-03-02T20:23:50.052Z,56.50
2023-03-02T20:26:18.864Z,56.50
2023-03-02T20:28:47.019Z,56.70
2023-03-02T20:31:16.611Z,56.80
2023-03-02T20:33:48.424Z,56.90
2023-03-02T20:36:19.819Z,57.00
2023-03-02T20:38:53.698Z,57.00
2023-03-02T20:41:22.450Z,57.00
2023-03-02T20:43:51.491Z,57.00
2023-03-02T20:46:23.537Z,57.10
2023-03-02T20:48:51.724Z,57.30
2023-03-02T20:51:21.069Z,57.20
2023-03-02T20:53:51.239Z,57.20
2023-03-02T20:56:20.960Z,57.20
2023-03-02T20:58:49.652Z,57.30
2023-03-02T21:01:19.338Z,57.40
2023-03-02T21:03:48.154Z,57.50
2023-03-02T21:06:16.978Z,57.50
2023-03-02T21:08:47.495Z,57.50
2023-03-02T21:11:19.968Z,57.60
2023-03-02T21:13:49.526Z,57.50
2023-03-02T21:16:21.125Z,57.60
2023-03-02T21:18:49.271Z,57.70
2023-03-02T21:21:23.063Z,57.70
2023-03-02T21:23:53.280Z,57.80
2023-03-02T21:26:23.407Z,57.80
2023-03-02T21:28:51.539Z,57.90
2023-03-02T21:31:19.760Z,57.90
2023-03-02T21:33:49.723Z,57.90
2023-03-02T21:36:22.263Z,57.90
2023-03-02T21:38:50.621Z,58.00
2023-03-02T21:41:19.702Z,58.00
2023-03-02T21:43:49.508Z,58.10
2023-03-02T21:46:20.223Z,58.20
2023-03-02T21:48:49.421Z,58.40
2023-03-02T21:51:17.722Z,58.40
2023-03-02T21:53:45.788Z,59.00
2023-03-02T21:56:21.219Z,58.40
2023-03-02T21:58:51.749Z,58.50
2023-03-02T22:01:20.368Z,58.50
2023-03-02T22:03:48.632Z,58.60
2023-03-02T22:06:18.647Z,58.60
2023-03-02T22:08:46.881Z,58.70
2023-03-02T22:11:20.458Z,58.60
2023-03-02T22:13:51.968Z,58.70
2023-03-02T22:16:21.693Z,58.70
2023-03-02T22:18:54.709Z,58.70
2023-03-02T22:21:28.992Z,58.70
2023-03-02T22:24:02.313Z,58.90
2023-03-02T22:26:30.419Z,58.90
2023-03-02T22:29:13.213Z,58.90
2023-03-02T22:31:44.120Z,59.00
2023-03-02T22:34:16.192Z,58.90
2023-03-02T22:36:45.113Z,59.10
2023-03-02T22:39:18.477Z,58.90
2023-03-02T22:41:47.046Z,59.00
2023-03-02T22:44:16.574Z,59.00
2023-03-02T22:46:45.433Z,59.20
2023-03-02T22:49:18.094Z,59.10
2023-03-02T22:51:46.714Z,59.20
2023-03-02T22:54:22.798Z,59.10
2023-03-02T22:56:52.459Z,59.30
2023-03-02T22:59:25.107Z,59.30
2023-03-02T23:02:01.505Z,59.20
2023-03-02T23:04:34.461Z,59.40
2023-03-02T23:07:04.046Z,59.90
2023-03-02T23:09:34.288Z,59.40
2023-03-02T23:12:14.720Z,59.50
2023-03-02T23:14:49.996Z,59.50
2023-03-02T23:17:22.609Z,60.30
2023-03-02T23:19:52.372Z,59.60
2023-03-02T23:22:20.991Z,59.50
2023-03-02T23:24:49.524Z,59.60
2023-03-02T23:27:17.587Z,59.60
2023-03-02T23:29:47.528Z,59.60
2023-03-02T23:32:17.697Z,59.70
2023-03-02T23:34:47.129Z,59.60
2023-03-02T23:37:15.216Z,59.70
2023-03-02T23:39:45.983Z,59.50
2023-03-02T23:42:14.236Z,59.60
2023-03-02T23:44:42.768Z,59.70
2023-03-02T23:47:12.657Z,59.70
2023-03-02T23:49:40.718Z,59.70
2023-03-02T23:52:09.494Z,59.70
2023-03-02T23:54:37.544Z,59.70
2023-03-02T23:57:05.714Z,59.80
2023-03-02T23:59:34.223Z,59.80
